Time;durP1;ratioP1;P1;durP2;ratioP2;P2;SDS_P1;SDS_P2;PMS_P1;PMS_P2;Temp;Humidity;BMP_temperature;BMP_pressure;BME280_temperature;BME280_humidity;BME280_pressure;Samples;Min_cycle;Max_cycle;Signal;HPM_P1;HPM_P2
2022/01/16 00:01:59;;;;;;;46.17;24.30;;;5.60;80.00;;;;;;5095830;28;20024;-65
2022/01/16 00:04:09;;;;;;;46.37;23.93;;;5.60;80.00;;;;;;5096087;28;20031;-65
2022/01/16 00:06:46;;;;;;;44.17;22.60;;;5.60;80.00;;;;;;5095517;28;20032;-65
2022/01/16 00:09:13;;;;;;;45.50;23.17;;;5.60;80.00;;;;;;5095869;28;20411;-65
2022/01/16 00:11:39;;;;;;;46.40;23.07;;;5.60;80.00;;;;;;5095544;28;20035;-65
2022/01/16 00:14:06;;;;;;;39.83;20.93;;;5.50;80.00;;;;;;5096009;28;20036;-65
2022/01/16 00:16:32;;;;;;;44.47;21.77;;;5.50;80.60;;;;;;5095617;28;20024;-65
2022/01/16 00:18:58;;;;;;;45.60;24.03;;;5.60;80.00;;;;;;5094974;28;20463;-65
2022/01/16 00:21:27;;;;;;;47.30;24.03;;;5.50;79.80;;;;;;5095672;28;20409;-65
2022/01/16 00:23:53;;;;;;;49.10;24.93;;;5.50;79.80;;;;;;5094437;28;20028;-65
2022/01/16 00:26:20;;;;;;;52.00;27.23;;;5.60;79.80;;;;;;5093915;28;20172;-64
2022/01/16 00:28:47;;;;;;;47.30;23.40;;;5.60;79.80;;;;;;5095227;28;20142;-65
2022/01/16 00:31:12;;;;;;;47.60;26.10;;;5.50;79.80;;;;;;5095047;28;20376;-65
2022/01/16 00:33:39;;;;;;;46.00;24.03;;;5.50;79.90;;;;;;5095426;28;20035;-65
2022/01/16 00:36:10;;;;;;;46.03;24.97;;;5.50;80.00;;;;;;5095190;28;20056;-65
2022/01/16 00:38:38;;;;;;;51.60;26.10;;;5.50;79.90;;;;;;5095422;28;20020;-65
2022/01/16 00:41:04;;;;;;;43.80;25.77;;;5.40;79.90;;;;;;5095062;28;20341;-65
2022/01/16 00:43:29;;;;;;;46.27;24.53;;;5.50;79.90;;;;;;5095433;28;20032;-65
2022/01/16 00:45:55;;;;;;;53.27;26.83;;;5.50;79.90;;;;;;5095065;28;20364;-65
2022/01/16 00:48:21;;;;;;;53.77;27.50;;;5.50;79.90;;;;;;5095510;28;20468;-65
2022/01/16 00:50:46;;;;;;;54.43;27.33;;;5.50;79.80;;;;;;5093986;28;20476;-65
2022/01/16 00:53:12;;;;;;;57.23;30.60;;;5.50;80.00;;;;;;5094449;28;20043;-65
2022/01/16 00:55:38;;;;;;;48.23;26.30;;;5.50;79.90;;;;;;5093841;28;20027;-65
2022/01/16 00:58:04;;;;;;;45.40;24.50;;;5.50;79.90;;;;;;5094202;28;20028;-65
2022/01/16 01:00:33;;;;;;;54.73;28.70;;;5.50;79.90;;;;;;5094758;28;20371;-65
2022/01/16 01:02:59;;;;;;;52.90;26.23;;;5.50;79.90;;;;;;5094925;28;20028;-65
2022/01/16 01:05:26;;;;;;;52.77;28.53;;;5.50;80.00;;;;;;5094450;28;20353;-65
2022/01/16 01:07:52;;;;;;;52.77;27.63;;;5.50;79.90;;;;;;5095017;28;20475;-65
2022/01/16 01:10:18;;;;;;;53.40;26.67;;;5.40;79.90;;;;;;5092101;28;20067;-65
2022/01/16 01:12:55;;;;;;;53.37;28.20;;;5.40;80.00;;;;;;5093722;28;20460;-65
2022/01/16 01:15:26;;;;;;;49.03;25.73;;;5.40;80.00;;;;;;5094179;28;20110;-65
2022/01/16 01:17:53;;;;;;;48.88;25.35;;;5.40;80.00;;;;;;5094892;28;20114;-65
2022/01/16 01:20:21;;;;;;;50.87;28.10;;;5.40;80.00;;;;;;5094734;28;20032;-65
2022/01/16 01:22:49;;;;;;;52.00;26.73;;;5.40;80.10;;;;;;5093438;28;20056;-65
2022/01/16 01:25:15;;;;;;;42.50;22.83;;;5.40;80.10;;;;;;5093050;28;20028;-65
2022/01/16 01:27:43;;;;;;;44.13;24.70;;;5.40;80.10;;;;;;5094614;28;20054;-65
2022/01/16 01:30:12;;;;;;;45.53;24.10;;;5.40;80.10;;;;;;5093983;28;20040;-65
2022/01/16 01:32:40;;;;;;;40.50;23.40;;;5.40;80.10;;;;;;5093491;28;20032;-65
2022/01/16 01:35:08;;;;;;;48.73;24.13;;;5.50;80.10;;;;;;5094046;28;20023;-65
2022/01/16 01:37:34;;;;;;;43.13;22.63;;;5.40;80.00;;;;;;5094206;28;20036;-65
2022/01/16 01:40:00;;;;;;;42.67;22.70;;;5.40;80.10;;;;;;5093231;28;20469;-65
2022/01/16 01:42:32;;;;;;;44.10;24.93;;;5.40;80.10;;;;;;5094038;28;20061;-65
2022/01/16 01:53:16;;;;;;;46.80;23.17;;;5.30;80.10;;;;;;5093259;28;20043;-65
2022/01/16 01:55:43;;;;;;;43.47;23.27;;;5.30;80.20;;;;;;5093687;28;20067;-65
2022/01/16 01:58:10;;;;;;;42.90;22.90;;;5.30;80.20;;;;;;5093073;28;20039;-65
2022/01/16 02:00:39;;;;;;;45.77;23.07;;;5.30;80.20;;;;;;5093701;28;20461;-65
2022/01/16 02:03:21;;;;;;;45.37;24.30;;;5.30;80.10;;;;;;5093167;28;20035;-65
2022/01/16 02:05:46;;;;;;;;;;;5.30;80.10;;;;;;5086148;28;20036;-65
2022/01/16 02:08:13;;;;;;;46.20;24.77;;;5.30;80.20;;;;;;5110514;28;19930;-65
2022/01/16 02:10:40;;;;;;;38.30;21.50;;;5.20;80.30;;;;;;5093333;28;20029;-65
2022/01/16 02:13:09;;;;;;;42.53;21.73;;;5.30;80.30;;;;;;5093377;28;20478;-65
2022/01/16 02:32:00;;;;;;;43.03;22.70;;;5.20;80.20;;;;;;5005968;28;20047;-64
2022/01/16 02:34:35;;;;;;;48.50;24.57;;;5.20;80.20;;;;;;5010454;28;20062;-64
2022/01/16 02:37:06;;;;;;;42.27;22.73;;;5.20;80.30;;;;;;4996160;28;20030;-65
2022/01/16 02:39:35;;;;;;;42.27;22.37;;;5.20;80.30;;;;;;4996142;28;20033;-64
2022/01/16 02:42:03;;;;;;;43.60;24.90;;;5.20;80.30;;;;;;5012315;28;20848;-64
2022/01/16 02:44:34;;;;;;;43.87;23.00;;;5.30;80.40;;;;;;5007458;28;20029;-64
2022/01/16 02:47:02;;;;;;;42.35;22.67;;;5.20;80.30;;;;;;5012289;28;20140;-64
2022/01/16 02:49:30;;;;;;;41.40;22.90;;;5.20;80.40;;;;;;5015812;28;20477;-65
2022/01/16 02:52:02;;;;;;;46.13;23.80;;;5.20;80.40;;;;;;4998823;28;20026;-64
2022/01/16 02:54:30;;;;;;;43.57;24.20;;;5.20;80.40;;;;;;5015555;28;20084;-64
2022/01/16 02:56:56;;;;;;;40.30;22.97;;;5.30;80.50;;;;;;4983416;28;20035;-64
2022/01/16 02:59:22;;;;;;;46.03;22.83;;;5.20;80.50;;;;;;4968227;28;20173;-64
2022/01/16 03:01:49;;;;;;;47.33;23.83;;;5.30;80.60;;;;;;5015100;28;20089;-65
2022/01/16 03:04:16;;;;;;;43.53;23.67;;;5.20;80.60;;;;;;5015717;28;20034;-64
2022/01/16 03:06:42;;;;;;;47.17;23.70;;;5.30;80.60;;;;;;5051964;28;20377;-64
2022/01/16 03:09:10;;;;;;;43.50;22.07;;;5.30;80.50;;;;;;5095875;28;20034;-64
2022/01/16 03:11:41;;;;;;;47.57;23.77;;;5.30;80.50;;;;;;5093510;28;20105;-64
2022/01/16 03:14:12;;;;;;;44.97;23.65;;;5.30;80.60;;;;;;5097623;28;20111;-64
2022/01/16 03:16:42;;;;;;;41.58;21.75;;;5.30;80.50;;;;;;5095717;28;20197;-64
2022/01/16 03:21:54;;;;;;;46.20;23.63;;;5.40;80.60;;;;;;5089248;28;20065;-64
2022/01/16 03:24:25;;;;;;;39.67;22.07;;;5.30;80.50;;;;;;5095713;28;20043;-64
2022/01/16 03:26:53;;;;;;;42.28;22.15;;;5.40;80.70;;;;;;5095251;28;20052;-64
2022/01/16 03:29:18;;;;;;;47.90;24.23;;;5.30;80.60;;;;;;5078529;28;20055;-64
2022/01/16 03:31:44;;;;;;;44.40;22.93;;;5.40;80.70;;;;;;5095895;28;20036;-64
2022/01/16 03:34:09;;;;;;;48.07;23.70;;;5.40;80.70;;;;;;5095948;28;20374;-64
2022/01/16 03:36:35;;;;;;;43.47;23.47;;;5.30;80.70;;;;;;5095470;28;20032;-64
2022/01/16 03:39:01;;;;;;;46.40;22.77;;;5.40;80.80;;;;;;5096200;28;20025;-64
2022/01/16 03:41:28;;;;;;;46.83;21.10;;;5.40;80.80;;;;;;5095664;28;20025;-64
2022/01/16 03:44:02;;;;;;;50.43;24.63;;;5.30;80.80;;;;;;5095633;28;20052;-64
2022/01/16 03:46:35;;;;;;;44.93;22.83;;;5.30;80.90;;;;;;5096803;28;20036;-64
2022/01/16 03:49:04;;;;;;;46.97;23.53;;;5.40;80.90;;;;;;5079976;28;20039;-64
2022/01/16 03:51:30;;;;;;;50.20;23.67;;;5.40;80.90;;;;;;5076519;28;20033;-64
2022/01/16 03:53:56;;;;;;;46.20;21.53;;;5.40;80.90;;;;;;5090352;28;20476;-64
2022/01/16 03:56:22;;;;;;;48.40;23.63;;;5.40;81.00;;;;;;5096294;28;20036;-64
2022/01/16 03:58:47;;;;;;;55.83;23.53;;;5.40;81.00;;;;;;5095704;28;20406;-64
2022/01/16 04:01:13;;;;;;;53.73;25.10;;;5.40;81.00;;;;;;5095988;28;20024;-64
2022/01/16 04:03:39;;;;;;;49.07;23.13;;;5.40;81.10;;;;;;5067674;28;20029;-64
2022/01/16 04:06:04;;;;;;;49.27;24.50;;;5.40;81.10;;;;;;5088196;28;20350;-64
2022/01/16 04:08:30;;;;;;;49.03;22.77;;;5.40;81.10;;;;;;5095395;28;20023;-64
2022/01/16 04:10:55;;;;;;;50.53;24.10;;;5.40;81.00;;;;;;5078005;28;20031;-64
2022/01/16 04:13:21;;;;;;;46.70;21.13;;;5.40;81.00;;;;;;5094773;28;20028;-64
2022/01/16 04:15:48;;;;;;;57.13;25.47;;;5.40;81.10;;;;;;5095963;28;20032;-64
2022/01/16 04:18:13;;;;;;;53.73;24.03;;;5.40;81.00;;;;;;5094283;28;20032;-64
2022/01/16 04:20:39;;;;;;;46.13;21.30;;;5.40;81.00;;;;;;5095913;28;20085;-64
2022/01/16 04:23:06;;;;;;;47.60;23.17;;;5.40;81.00;;;;;;5095812;28;20024;-64
2022/01/16 04:25:32;;;;;;;47.40;23.17;;;5.40;81.10;;;;;;5094559;28;20032;-64
2022/01/16 04:27:59;;;;;;;46.43;24.20;;;5.40;81.10;;;;;;5111154;28;20090;-64
2022/01/16 04:30:25;;;;;;;51.97;25.03;;;5.40;81.10;;;;;;5095782;28;20092;-64
2022/01/16 04:32:50;;;;;;;47.90;23.97;;;5.40;81.10;;;;;;5095356;28;20028;-64
2022/01/16 04:35:16;;;;;;;49.80;24.67;;;5.40;81.10;;;;;;5095536;28;20055;-64
2022/01/16 04:37:41;;;;;;;47.07;22.43;;;5.50;81.10;;;;;;5095400;28;20099;-64
2022/01/16 04:40:08;;;;;;;48.50;24.70;;;5.50;81.10;;;;;;5095055;28;20028;-64
2022/01/16 04:45:18;;;;;;;47.10;24.53;;;5.50;81.00;;;;;;5095219;28;20031;-64
2022/01/16 04:47:44;;;;;;;50.50;24.23;;;5.50;81.00;;;;;;5095602;28;20036;-64
2022/01/16 04:50:13;;;;;;;47.70;24.57;;;5.50;81.10;;;;;;5093968;28;20032;-64
2022/01/16 04:52:39;;;;;;;50.37;25.07;;;5.50;81.00;;;;;;5095298;28;20445;-64
2022/01/16 04:55:07;;;;;;;46.77;25.43;;;5.50;81.10;;;;;;5093363;28;20060;-65
2022/01/16 04:57:33;;;;;;;47.40;24.77;;;5.50;81.10;;;;;;5095299;28;20049;-64
2022/01/16 04:59:58;;;;;;;43.60;23.90;;;5.50;81.10;;;;;;5094775;28;20024;-64
2022/01/16 05:02:24;;;;;;;46.43;25.67;;;5.50;81.10;;;;;;5095699;28;20369;-64
2022/01/16 05:04:49;;;;;;;47.73;24.97;;;5.50;81.10;;;;;;5093218;28;20036;-64
2022/01/16 05:07:15;;;;;;;47.70;26.17;;;5.50;81.10;;;;;;5073732;28;20334;-64
2022/01/16 05:09:41;;;;;;;45.23;24.40;;;5.50;81.10;;;;;;5094253;28;20028;-64
2022/01/16 05:12:12;;;;;;;50.07;24.80;;;5.50;81.00;;;;;;5094526;28;20081;-64
2022/01/16 05:17:22;;;;;;;45.50;22.30;;;5.50;81.00;;;;;;5074748;28;20032;-64
2022/01/16 05:19:48;;;;;;;44.17;25.47;;;5.50;81.00;;;;;;5094102;28;20054;-64
2022/01/16 05:22:13;;;;;;;47.00;26.50;;;5.50;81.00;;;;;;5094916;28;20028;-64
2022/01/16 05:24:39;;;;;;;47.47;25.90;;;5.50;81.10;;;;;;5085326;28;20085;-64
2022/01/16 05:27:06;;;;;;;51.40;27.13;;;5.50;81.00;;;;;;5092811;28;20107;-64
2022/01/16 05:29:32;;;;;;;49.93;27.53;;;5.50;81.00;;;;;;5094412;28;20028;-64
2022/01/16 05:31:58;;;;;;;46.57;25.67;;;5.50;81.00;;;;;;5095176;28;20024;-65
2022/01/16 05:34:25;;;;;;;46.57;26.30;;;5.50;81.00;;;;;;5093890;28;20031;-64
2022/01/16 05:36:52;;;;;;;46.77;26.33;;;5.60;81.00;;;;;;5094264;28;20042;-64
2022/01/16 05:39:18;;;;;;;50.00;27.70;;;5.60;81.00;;;;;;5093828;28;20449;-64
2022/01/16 05:41:44;;;;;;;53.93;29.40;;;5.60;81.10;;;;;;5093485;28;20084;-64
2022/01/16 05:44:09;;;;;;;47.60;27.77;;;5.60;81.10;;;;;;5093233;28;20088;-64
2022/01/16 05:46:35;;;;;;;50.80;27.83;;;5.60;81.10;;;;;;5079980;28;20028;-64
2022/01/16 05:49:00;;;;;;;44.30;26.30;;;5.60;81.00;;;;;;5087251;28;20031;-64
2022/01/16 05:51:26;;;;;;;48.10;25.73;;;5.60;81.00;;;;;;5073069;28;20024;-64
2022/01/16 05:53:52;;;;;;;50.67;27.83;;;5.60;81.00;;;;;;5084688;28;20070;-64
2022/01/16 05:56:17;;;;;;;44.43;26.33;;;5.60;81.00;;;;;;5094061;28;20382;-64
2022/01/16 05:58:43;;;;;;;51.30;29.27;;;5.60;81.00;;;;;;5092987;28;20054;-64
2022/01/16 06:01:09;;;;;;;57.87;30.17;;;5.70;81.10;;;;;;5093144;28;20028;-64
2022/01/16 06:03:35;;;;;;;55.10;30.60;;;5.60;81.10;;;;;;5093202;28;20020;-63
2022/01/16 06:06:00;;;;;;;50.30;29.07;;;5.60;81.00;;;;;;5093026;28;20056;-64
2022/01/16 06:08:26;;;;;;;50.07;28.67;;;5.60;81.00;;;;;;5092810;28;20027;-64
2022/01/16 06:10:51;;;;;;;58.23;30.97;;;5.60;81.00;;;;;;5093633;28;20047;-64
2022/01/16 06:13:17;;;;;;;52.83;29.20;;;5.60;81.00;;;;;;5093958;28;20016;-64
2022/01/16 06:15:43;;;;;;;55.53;30.73;;;5.60;81.00;;;;;;5093097;28;20477;-64
2022/01/16 06:18:09;;;;;;;50.80;29.60;;;5.70;81.10;;;;;;5096165;28;20449;-64
2022/01/16 06:20:35;;;;;;;58.63;30.77;;;5.60;81.00;;;;;;5080484;28;20024;-64
2022/01/16 06:23:01;;;;;;;58.67;31.07;;;5.60;81.00;;;;;;5095480;28;20028;-65
2022/01/16 06:25:29;;;;;;;55.73;29.27;;;5.60;81.00;;;;;;5094995;28;20475;-64
2022/01/16 06:27:55;;;;;;;56.60;30.60;;;5.70;81.10;;;;;;5096746;28;20368;-64
2022/01/16 06:30:21;;;;;;;59.00;31.40;;;5.70;81.00;;;;;;5096732;28;20024;-64
2022/01/16 06:32:47;;;;;;;55.60;29.87;;;5.70;81.00;;;;;;5095540;28;20388;-64
2022/01/16 06:35:16;;;;;;;50.40;30.30;;;5.70;81.00;;;;;;5096580;28;20472;-64
2022/01/16 06:37:43;;;;;;;52.77;29.97;;;5.70;80.90;;;;;;5096252;28;20024;-64
2022/01/16 06:40:11;;;;;;;59.07;33.00;;;5.70;80.90;;;;;;5095003;28;20024;-64
2022/01/16 06:42:37;;;;;;;57.43;32.47;;;5.70;80.80;;;;;;5095959;28;20441;-64
2022/01/16 06:45:05;;;;;;;55.10;30.07;;;5.70;80.80;;;;;;5096276;28;20122;-65
2022/01/16 06:47:31;;;;;;;60.27;33.20;;;5.70;80.80;;;;;;5096865;28;20462;-64
2022/01/16 06:49:56;;;;;;;52.53;28.87;;;5.70;80.80;;;;;;5095707;28;20032;-64
2022/01/16 06:52:22;;;;;;;59.03;32.60;;;5.80;80.80;;;;;;5095050;28;20023;-65
2022/01/16 06:54:47;;;;;;;57.43;33.27;;;5.70;80.70;;;;;;5097194;28;20030;-65
2022/01/16 06:57:13;;;;;;;58.00;32.47;;;5.70;80.70;;;;;;5097738;28;20162;-65
2022/01/16 06:59:39;;;;;;;59.53;32.43;;;5.70;80.70;;;;;;5097475;28;20348;-65
2022/01/16 07:02:07;;;;;;;58.00;31.20;;;5.70;80.80;;;;;;5096764;28;20060;-65
2022/01/16 07:04:33;;;;;;;61.70;34.77;;;5.70;80.80;;;;;;5096268;28;20123;-65
2022/01/16 07:06:59;;;;;;;59.30;32.23;;;5.80;80.80;;;;;;5098279;28;20111;-65
2022/01/16 07:09:25;;;;;;;54.07;30.97;;;5.70;80.80;;;;;;5096417;28;20032;-65
2022/01/16 07:11:51;;;;;;;56.33;33.63;;;5.70;80.80;;;;;;5097632;28;20034;-65
2022/01/16 07:14:16;;;;;;;55.33;32.57;;;5.70;80.80;;;;;;5097203;28;20020;-65
2022/01/16 07:16:42;;;;;;;55.50;32.40;;;5.70;80.80;;;;;;5097481;28;20032;-65
2022/01/16 07:19:07;;;;;;;56.50;33.03;;;5.80;80.90;;;;;;5096558;28;20096;-65
2022/01/16 07:21:33;;;;;;;57.57;34.07;;;5.80;80.80;;;;;;5097829;28;20065;-65
2022/01/16 07:23:58;;;;;;;62.43;34.50;;;5.80;80.80;;;;;;5097216;28;20042;-65
2022/01/16 07:26:24;;;;;;;54.77;33.03;;;5.80;80.80;;;;;;5097626;28;20028;-65
2022/01/16 07:28:51;;;;;;;52.83;30.13;;;5.80;80.80;;;;;;5097108;28;20375;-65
2022/01/16 07:31:16;;;;;;;51.93;31.90;;;5.80;80.80;;;;;;5096311;28;20086;-65
2022/01/16 07:33:42;;;;;;;54.03;31.80;;;5.80;80.70;;;;;;5095957;28;20036;-65
2022/01/16 07:36:07;;;;;;;52.03;31.67;;;5.80;80.80;;;;;;5096527;28;20040;-65
2022/01/16 07:38:33;;;;;;;49.10;30.00;;;5.90;80.80;;;;;;5096993;28;20034;-65
2022/01/16 07:40:59;;;;;;;48.87;29.50;;;5.90;80.70;;;;;;5093083;28;20413;-66
2022/01/16 07:43:24;;;;;;;47.87;29.67;;;5.90;80.70;;;;;;5092360;28;20070;-66
2022/01/16 07:45:50;;;;;;;51.03;29.57;;;5.90;80.80;;;;;;5090071;28;20032;-66
2022/01/16 07:48:15;;;;;;;45.57;29.03;;;6.00;80.80;;;;;;5090801;28;20031;-66
2022/01/16 07:50:41;;;;;;;49.30;30.43;;;6.00;80.80;;;;;;5091669;28;20038;-66
2022/01/16 07:53:08;;;;;;;50.93;30.40;;;6.00;80.70;;;;;;5096217;28;20034;-66
2022/01/16 07:55:33;;;;;;;47.30;28.80;;;6.00;80.80;;;;;;5096121;28;20024;-66
2022/01/16 07:57:59;;;;;;;46.73;29.47;;;6.00;80.70;;;;;;5096361;28;20028;-67
2022/01/16 08:00:26;;;;;;;51.23;31.57;;;6.00;80.80;;;;;;5095798;28;20063;-66
2022/01/16 08:02:52;;;;;;;46.30;27.57;;;6.00;80.80;;;;;;5095352;28;20028;-66
2022/01/16 08:05:18;;;;;;;45.57;26.97;;;6.00;80.80;;;;;;5095040;28;20062;-66
2022/01/16 08:07:44;;;;;;;44.77;27.30;;;6.00;80.80;;;;;;5078771;28;20036;-66
2022/01/16 08:10:11;;;;;;;44.90;28.10;;;6.10;80.80;;;;;;5089569;28;20097;-66
2022/01/16 08:12:37;;;;;;;48.40;30.07;;;6.10;80.80;;;;;;5095537;28;20085;-66
2022/01/16 08:15:04;;;;;;;45.87;28.33;;;6.10;80.80;;;;;;5077009;28;20468;-66
2022/01/16 08:17:30;;;;;;;45.43;29.10;;;6.10;80.80;;;;;;5093895;28;20028;-66
2022/01/16 08:19:56;;;;;;;47.50;28.37;;;6.10;80.80;;;;;;5093575;28;20044;-66
2022/01/16 08:22:22;;;;;;;46.17;29.07;;;6.10;80.80;;;;;;5094226;28;20073;-66
2022/01/16 08:24:47;;;;;;;44.53;27.77;;;6.10;80.80;;;;;;5093957;28;20024;-66
2022/01/16 08:27:15;;;;;;;44.13;27.43;;;6.10;80.80;;;;;;5095655;28;20355;-66
2022/01/16 08:29:41;;;;;;;39.60;25.97;;;6.20;80.80;;;;;;5095420;28;20492;-66
2022/01/16 08:32:07;;;;;;;41.10;25.90;;;6.20;80.80;;;;;;5095871;28;20111;-69
2022/01/16 08:34:33;;;;;;;43.97;28.13;;;6.30;80.80;;;;;;5094365;28;20024;-65
2022/01/16 08:36:58;;;;;;;40.93;27.37;;;6.30;80.70;;;;;;5095291;28;20036;-65
2022/01/16 08:39:24;;;;;;;45.87;28.07;;;6.30;80.70;;;;;;5094575;28;20051;-66
2022/01/16 08:41:49;;;;;;;42.37;27.73;;;6.30;80.70;;;;;;5094192;28;20028;-66
2022/01/16 08:44:15;;;;;;;42.27;26.60;;;6.30;80.70;;;;;;5094403;28;20030;-66
2022/01/16 08:46:41;;;;;;;39.77;25.37;;;6.40;80.70;;;;;;5095131;28;20115;-65
2022/01/16 08:49:06;;;;;;;42.03;25.77;;;6.40;80.70;;;;;;5093279;28;20441;-66
2022/01/16 08:51:32;;;;;;;37.43;25.27;;;6.40;80.60;;;;;;5092398;28;20141;-66
2022/01/16 08:53:57;;;;;;;40.13;25.37;;;6.50;80.70;;;;;;5094339;28;20053;-66
2022/01/16 08:56:23;;;;;;;43.03;25.43;;;6.50;80.60;;;;;;5094056;28;20398;-66
2022/01/16 08:58:49;;;;;;;38.37;26.03;;;6.50;80.60;;;;;;5076161;28;20452;-66
2022/01/16 09:01:15;;;;;;;38.70;24.40;;;6.60;80.60;;;;;;5092375;28;20119;-66
2022/01/16 09:03:40;;;;;;;39.77;24.73;;;6.60;80.60;;;;;;5094283;28;20059;-66
2022/01/16 09:06:06;;;;;;;37.23;22.57;;;6.60;80.50;;;;;;5093552;28;20429;-66
2022/01/16 09:08:32;;;;;;;35.90;22.70;;;6.60;80.50;;;;;;5093691;28;20074;-65
2022/01/16 09:10:58;;;;;;;34.53;23.27;;;6.70;80.50;;;;;;5093623;28;20420;-65
2022/01/16 09:13:23;;;;;;;37.50;23.73;;;6.70;80.50;;;;;;5093165;28;20036;-66
2022/01/16 09:15:50;;;;;;;34.23;21.20;;;6.70;80.40;;;;;;5092168;28;20039;-66
2022/01/16 09:18:17;;;;;;;32.20;21.43;;;6.70;80.30;;;;;;5093916;28;20437;-66
2022/01/16 09:20:45;;;;;;;30.90;20.17;;;6.70;80.30;;;;;;5092044;28;20016;-66
2022/01/16 09:23:11;;;;;;;31.10;20.53;;;6.80;80.30;;;;;;5108298;28;20020;-66
2022/01/16 09:25:37;;;;;;;35.63;21.43;;;6.80;80.30;;;;;;5075220;28;20457;-66
2022/01/16 09:28:03;;;;;;;31.77;19.83;;;6.80;80.20;;;;;;5093017;28;20093;-65
2022/01/16 09:30:29;;;;;;;37.60;22.90;;;6.90;80.20;;;;;;5093328;28;20509;-65
2022/01/16 09:32:56;;;;;;;38.60;21.13;;;6.90;80.20;;;;;;5093211;28;20071;-65
2022/01/16 09:35:22;;;;;;;36.13;21.53;;;6.90;80.20;;;;;;5092642;28;20032;-65
2022/01/16 09:37:48;;;;;;;33.93;22.20;;;6.90;80.20;;;;;;5092479;28;20031;-66
2022/01/16 09:40:17;;;;;;;36.50;21.73;;;6.90;80.10;;;;;;5093465;28;20111;-66
2022/01/16 09:42:43;;;;;;;34.17;20.40;;;7.00;80.10;;;;;;5094034;28;20096;-65
2022/01/16 09:45:11;;;;;;;36.13;21.57;;;7.00;80.10;;;;;;5094533;28;20040;-65
2022/01/16 09:47:37;;;;;;;34.57;20.63;;;7.00;80.10;;;;;;5077165;28;20032;-66
2022/01/16 09:50:05;;;;;;;30.77;21.23;;;7.00;80.10;;;;;;5094788;28;20051;-66
2022/01/16 09:52:38;;;;;;;29.97;19.17;;;7.10;80.20;;;;;;5095061;28;20089;-66
2022/01/16 09:55:05;;;;;;;31.67;20.20;;;7.10;80.20;;;;;;5094876;28;20040;-66
2022/01/16 09:57:31;;;;;;;32.97;20.77;;;7.10;80.20;;;;;;5094865;28;20028;-66
2022/01/16 09:59:56;;;;;;;32.60;18.37;;;7.10;80.20;;;;;;5095093;28;20024;-66
2022/01/16 10:02:22;;;;;;;32.70;19.47;;;7.10;80.30;;;;;;5094583;28;20031;-66
2022/01/16 10:04:48;;;;;;;33.37;20.80;;;7.10;80.30;;;;;;5094889;28;20031;-66
2022/01/16 10:07:16;;;;;;;29.10;18.80;;;7.10;80.30;;;;;;5095119;28;20028;-66
2022/01/16 10:10:03;;;;;;;32.33;20.63;;;7.20;80.40;;;;;;5094088;28;20036;-67
2022/01/16 10:12:28;;;;;;;31.97;18.70;;;7.20;80.40;;;;;;5094743;28;20028;-66
2022/01/16 10:14:54;;;;;;;32.27;18.40;;;7.20;80.40;;;;;;5093403;28;20437;-66
2022/01/16 10:17:22;;;;;;;36.47;20.73;;;7.20;80.50;;;;;;5094603;28;20024;-66
2022/01/16 10:20:00;;;;;;;34.80;19.40;;;7.20;80.50;;;;;;5093323;28;20024;-66
2022/01/16 10:22:40;;;;;;;38.93;22.53;;;7.30;80.60;;;;;;5095234;28;20043;-63
2022/01/16 10:25:07;;;;;;;34.40;19.43;;;7.30;80.60;;;;;;5094604;28;20104;-66
2022/01/16 10:27:46;;;;;;;36.13;22.60;;;7.30;80.70;;;;;;5093441;28;20356;-66
2022/01/16 10:30:15;;;;;;;40.60;23.23;;;7.30;80.70;;;;;;5092877;28;20028;-65
2022/01/16 10:32:43;;;;;;;34.17;18.73;;;7.30;80.80;;;;;;5076068;28;20035;-65
2022/01/16 10:35:12;;;;;;;36.20;21.70;;;7.30;80.80;;;;;;5092693;28;20040;-65
2022/01/16 10:37:56;;;;;;;38.30;22.57;;;7.30;80.80;;;;;;5092493;28;20031;-66
2022/01/16 10:40:33;;;;;;;34.37;20.40;;;7.30;80.80;;;;;;5075572;28;20020;-65
2022/01/16 10:43:03;;;;;;;36.57;20.53;;;7.30;80.80;;;;;;5093944;28;20032;-66
2022/01/16 10:45:29;;;;;;;38.33;22.17;;;7.30;80.90;;;;;;5088822;28;20039;-65
2022/01/16 10:47:57;;;;;;;40.90;23.50;;;7.40;81.00;;;;;;5091845;28;20020;-65
2022/01/16 10:50:39;;;;;;;41.17;23.27;;;7.40;81.00;;;;;;5094079;28;20032;-66
2022/01/16 10:53:06;;;;;;;;;;;7.40;81.00;;;;;;5074825;28;20341;-66
2022/01/16 10:55:36;;;;;;;37.07;21.40;;;7.40;80.90;;;;;;5093285;28;19954;-66
2022/01/16 10:58:04;;;;;;;40.10;22.90;;;7.30;80.90;;;;;;5093424;28;20036;-66
2022/01/16 11:00:29;;;;;;;41.40;23.03;;;7.40;81.10;;;;;;5093512;28;20102;-66
2022/01/16 11:02:59;;;;;;;38.13;22.47;;;7.40;81.10;;;;;;5093790;28;20024;-67
2022/01/16 11:05:27;;;;;;;41.90;24.47;;;7.40;81.00;;;;;;5097868;28;20032;-66
2022/01/16 11:07:58;;;;;;;44.97;25.20;;;7.40;81.00;;;;;;5097212;28;20043;-66
2022/01/16 11:10:29;;;;;;;;;;;7.40;81.10;;;;;;5096537;28;20042;-65
2022/01/16 11:12:57;;;;;;;48.07;25.10;;;7.40;81.70;;;;;;5095692;28;19947;-66
2022/01/16 11:15:24;;;;;;;53.40;29.50;;;7.40;81.10;;;;;;5097323;28;20043;-66
2022/01/16 11:17:50;;;;;;;49.70;25.03;;;7.40;81.10;;;;;;5096841;28;20028;-66
2022/01/16 11:20:19;;;;;;;44.57;25.43;;;7.40;81.10;;;;;;5096573;28;20039;-66
2022/01/16 11:25:31;;;;;;;44.57;25.27;;;7.50;81.20;;;;;;5097567;28;20040;-66
2022/01/16 11:28:02;;;;;;;50.73;28.60;;;7.50;81.20;;;;;;5059294;28;20059;-66
2022/01/16 11:30:29;;;;;;;54.10;28.42;;;7.50;81.30;;;;;;5090608;28;20024;-66
2022/01/16 11:32:56;;;;;;;46.77;26.10;;;7.50;81.20;;;;;;5095930;28;20027;-66
2022/01/16 11:35:22;;;;;;;46.17;24.87;;;7.50;81.30;;;;;;5097273;28;20070;-66
2022/01/16 11:37:48;;;;;;;51.10;26.40;;;7.50;81.20;;;;;;5095520;28;20023;-66
2022/01/16 11:40:27;;;;;;;49.03;27.53;;;7.50;81.30;;;;;;5093202;28;20024;-66
2022/01/16 11:43:30;;;;;;;52.90;27.83;;;7.50;81.30;;;;;;5094633;28;20027;-66
2022/01/16 11:46:06;;;;;;;51.60;27.57;;;7.50;81.20;;;;;;5096983;28;20031;-66
2022/01/16 11:48:57;;;;;;;56.40;29.17;;;7.50;81.20;;;;;;5095765;28;20032;-66
2022/01/16 11:51:32;;;;;;;51.58;27.92;;;7.60;81.20;;;;;;5095761;28;20086;-66
2022/01/16 11:54:01;;;;;;;56.20;30.77;;;7.60;81.20;;;;;;5097369;28;20035;-66
2022/01/16 11:56:41;;;;;;;54.07;30.47;;;7.60;81.30;;;;;;5096825;28;20360;-66
2022/01/16 11:59:14;;;;;;;50.00;27.43;;;7.60;81.30;;;;;;5095606;28;20102;-66
2022/01/16 12:01:55;;;;;;;56.53;28.73;;;7.60;81.30;;;;;;5095859;28;20481;-66
2022/01/16 12:04:29;;;;;;;47.17;25.23;;;7.60;81.30;;;;;;5097117;28;20032;-66
2022/01/16 12:07:13;;;;;;;54.70;28.67;;;7.60;81.30;;;;;;5096529;28;20032;-66
2022/01/16 12:12:13;;;;;;;53.93;28.30;;;7.60;81.20;;;;;;5095202;28;20042;-65
2022/01/16 12:14:56;;;;;;;48.77;25.83;;;7.60;81.20;;;;;;5095332;28;20024;-66
2022/01/16 12:17:32;;;;;;;51.43;28.57;;;7.60;81.20;;;;;;5096051;28;20050;-66
2022/01/16 12:20:15;;;;;;;58.37;30.60;;;7.60;81.20;;;;;;5096053;28;20028;-66
2022/01/16 12:23:03;;;;;;;54.33;28.10;;;7.60;81.30;;;;;;5094446;28;20027;-66
2022/01/16 12:25:40;;;;;;;53.50;27.40;;;7.60;81.20;;;;;;5076271;28;20025;-66
2022/01/16 12:28:08;;;;;;;54.60;26.50;;;7.60;81.30;;;;;;5075290;28;20093;-66
2022/01/16 12:30:50;;;;;;;51.43;27.37;;;7.60;81.30;;;;;;5092330;28;20037;-67
2022/01/16 12:33:16;;;;;;;55.10;28.53;;;7.70;81.30;;;;;;5092018;28;20028;-67
2022/01/16 12:35:50;;;;;;;56.47;27.70;;;7.70;81.30;;;;;;5095467;28;20048;-67
2022/01/16 12:38:28;;;;;;;60.47;26.73;;;7.70;81.20;;;;;;5081549;28;20039;-67
2022/01/16 12:41:00;;;;;;;54.60;29.77;;;7.70;81.20;;;;;;5074942;28;20135;-67
2022/01/16 12:43:32;;;;;;;61.63;31.85;;;7.70;81.20;;;;;;5092234;28;20071;-66
2022/01/16 12:46:03;;;;;;;64.70;31.07;;;7.70;81.20;;;;;;5083298;28;20449;-66
2022/01/16 12:48:30;;;;;;;59.75;30.08;;;7.70;81.20;;;;;;5078459;28;20036;-67
2022/01/16 12:51:01;;;;;;;59.77;28.63;;;7.70;81.20;;;;;;5077819;28;20445;-66
2022/01/16 12:53:41;;;;;;;52.70;28.67;;;7.80;81.40;;;;;;5081557;28;20028;-66
2022/01/16 12:56:31;;;;;;;59.00;27.20;;;7.80;81.40;;;;;;5075747;28;20047;-67
2022/01/16 12:59:21;;;;;;;59.53;28.90;;;7.80;81.30;;;;;;5088943;28;20024;-66
2022/01/16 13:01:54;;;;;;;55.73;27.17;;;7.80;81.40;;;;;;5095900;28;20028;-66
2022/01/16 13:04:21;;;;;;;54.67;26.20;;;7.80;81.40;;;;;;5094295;28;20036;-67
2022/01/16 13:06:47;;;;;;;59.07;28.53;;;7.80;81.40;;;;;;5077511;28;20161;-67
2022/01/16 13:09:13;;;;;;;56.20;28.70;;;7.90;81.50;;;;;;5095617;28;20064;-67
2022/01/16 13:11:48;;;;;;;51.97;27.10;;;7.90;81.50;;;;;;5094109;28;20520;-67
2022/01/16 13:14:25;;;;;;;55.53;28.10;;;7.90;81.50;;;;;;5095301;28;20051;-67
2022/01/16 13:16:54;;;;;;;56.87;30.10;;;8.00;81.40;;;;;;5093453;28;20036;-67
2022/01/16 13:19:25;;;;;;;55.77;27.53;;;8.00;81.40;;;;;;5092928;28;20028;-67
2022/01/16 13:22:12;;;;;;;59.50;29.07;;;8.10;81.40;;;;;;5077501;28;20081;-67